Latest Coastal Weather Observations for Cape Bruny AWS

IDT60701

Issued at 1:03 am EDT Saturday 21 January 2017 (issued every 10 minutes, with the page automatically refreshed every 10 minutes)

About coastal observations | Map of coastal stations | Coastal observations for TAS | Marine services | Other Formats
Station Details ID: 094198 Name: CAPE BRUNY (CAPE BRUNY) Lat: -43.49 Lon: 147.14 Height: 59.7 m
Data from the previous 72 hours. | See also: Recent months at Cape Bruny AWS
Date/Time
EDT
Temp
°C
Wind Pressure Rain since
9am
mm
Weather Cloud Vis
km
Sea
Height
m
Swell
Dir  Spd
kts
Gust
kts
hPa Trend Height
m
Period
s
Dir
21/01:00am 12.0 W 18 25 1004.6 - 6.8 - - - - - - -
21/12:30am 12.3 W 18 24 1004.3 - 6.8 - - - - - - -
21/12:00am 12.0 W 17 24 1004.3 - 6.8 - - - - - - -
 
Date/Time
EDT
Temp
°C
Wind Pressure Rain since
9am
mm
Weather Cloud Vis
km
Sea
Height
m
Swell
Dir  Spd
kts
Gust
kts
hPa Trend Height
m
Period
s
Dir
20/11:30pm 12.4 WSW 22 29 1004.0 - 6.8 - - - - - - -
20/11:00pm 12.2 WSW 21 27 1004.2 - 6.8 - - - - - - -
20/10:30pm 12.1 WSW 21 26 1003.8 - 6.8 - - - - - - -
20/10:00pm 12.4 WSW 20 26 1003.7 - 6.8 - - - - - - -
20/09:30pm 12.0 W 17 22 1003.3 - 6.8 - - - - - - -
20/09:00pm 12.1 WSW 19 24 1002.6 - 6.6 - - - - - - -
20/08:30pm 12.3 W 15 23 1002.5 - 6.6 - - - - - - -
20/08:00pm 12.3 WSW 21 27 1002.2 - 6.6 - - - - - - -
20/07:30pm 12.2 WSW 18 24 1001.7 - 6.6 - - - - - - -
20/07:00pm 12.9 SW 15 21 1001.6 - 6.4 - - - - - - -
20/06:30pm 12.6 SW 8 19 1001.1 - 6.4 - - - - - - -
20/06:00pm 12.5 SW 10 15 1000.8 - 6.2 - - - - - - -
20/05:30pm 14.5 WSW 11 19 1000.5 - 6.2 - - - - - - -
20/05:00pm 14.1 SW 11 15 1000.0 - 6.2 - - - - - - -
20/04:30pm 14.7 SW 11 16 999.3 - 6.2 - - - - - - -
20/04:00pm 15.0 SW 7 12 998.8 - 6.2 - - - - - - -
20/03:30pm 14.6 SW 8 11 998.7 - 6.2 - - - - - - -
20/03:00pm 14.4 S 7 10 998.7 - 6.2 - - - - - - -
20/02:30pm 14.8 S 8 11 998.6 - 6.2 - - - - - - -
20/02:00pm 14.1 SSW 6 9 998.5 - 6.2 - - - - - - -
20/01:30pm 12.5 SSW 7 9 998.6 - 6.2 - - - - - - -
20/01:00pm 12.2 SSW 6 8 998.3 - 6.2 - - - - - - -
20/12:30pm 12.4 S 5 7 998.4 - 6.0 - - - - - - -
20/12:00pm 12.4 S 4 5 998.4 - 5.6 Rain - - - - - -
20/11:30am 11.9 S 5 6 998.6 - 5.0 - - - - - - -
20/11:00am 11.8 S 4 6 998.9 - 4.2 - - - - - - -
20/10:30am 11.7 SSW 4 5 999.1 - 3.0 - - - - - - -
20/10:00am 11.8 S 3 5 999.3 - 1.6 - - - - - - -
20/09:30am 11.9 WSW 2 4 999.7 - 0.6 - - - - - - -
20/09:00am 11.7 WSW 4 6 1000.0 - 6.2 Rain - - - - - -
20/08:30am 11.4 SW 4 5 1000.4 - 5.6 - - - - - - -
20/08:00am 11.6 SSE 2 4 1001.0 - 5.4 - - - - - - -
20/07:30am 11.5 NNE 2 3 1001.5 - 4.8 - - - - - - -
20/07:00am 11.3 N 1 5 1001.9 - 4.4 - - - - - - -
20/06:30am 11.3 WSW 1 3 1002.0 - 3.0 - - - - - - -
20/06:00am 11.2 NNE 4 5 1002.0 - 2.0 Recent precip. - - - - - -
20/05:30am 11.3 NNE 5 6 1001.6 - 2.0 - - - - - - -
20/05:00am 11.4 NNW 7 9 1002.1 - 1.6 - - - - - - -
20/04:30am 11.6 N 8 10 1003.2 - 1.2 - - - - - - -
20/04:00am 12.1 N 9 16 1003.1 - 0.6 - - - - - - -
20/03:30am 13.0 NNE 9 13 1003.6 - 0.0 - - - - - - -
20/03:00am 13.8 NNE 9 14 1004.3 - 0.0 - - - - - - -
20/02:30am 13.5 NNE 8 12 1004.8 - 0.0 - - - - - - -
20/02:00am 13.3 NE 8 12 1004.5 - 0.0 - - - - - - -
20/01:30am 13.2 NE 9 13 1004.8 - 0.0 - - - - - - -
20/01:00am 13.2 ENE 7 11 1005.8 - 0.0 - - - - - - -
20/12:30am 12.8 NE 7 9 1006.5 - 0.0 - - - - - - -
20/12:00am 12.6 NE 9 14 1006.7 - 0.0 - - - - - - -
 
Date/Time
EDT
Temp
°C
Wind Pressure Rain since
9am
mm
Weather Cloud Vis
km
Sea
Height
m
Swell
Dir  Spd
kts
Gust
kts
hPa Trend Height
m
Period
s
Dir
19/11:30pm 12.4 NE 10 15 1007.2 - 0.0 - - - - - - -
19/11:00pm 12.3 ENE 11 14 1007.4 - 0.0 - - - - - - -
19/10:30pm 12.4 NE 9 14 1008.5 - 0.0 - - - - - - -
19/10:00pm 12.2 NE 8 10 1009.1 - 0.0 - - - - - - -
19/09:30pm 12.5 ENE 11 17 1009.6 - 0.0 - - - - - - -
19/09:00pm 12.5 ENE 11 17 1010.0 - 0.0 - - - - - - -
19/08:30pm 12.7 ENE 13 17 1010.7 - 0.0 - - - - - - -
19/08:00pm 12.9 ENE 12 16 1011.2 - 0.0 - - - - - - -
19/07:30pm 13.6 E 12 15 1011.8 - 0.0 - - - - - - -
19/07:00pm 14.1 ENE 13 16 1011.6 - 0.0 - - - - - - -
19/06:30pm 14.6 E 14 19 1011.2 - 0.0 - - - - - - -
19/06:00pm 14.2 ESE 19 23 1010.9 - 0.0 - - - - - - -
19/05:30pm 14.3 ESE 20 24 1011.2 - 0.0 - - - - - - -
19/05:00pm 15.0 ESE 18 21 1011.8 - 0.0 - - - - - - -
19/04:30pm 15.4 ESE 16 19 1012.3 - 0.0 - - - - - - -
19/04:00pm 15.9 ESE 13 16 1013.1 - 0.0 - - - - - - -
19/03:30pm 16.0 ESE 11 14 1013.8 - 0.0 - - - - - - -
19/03:00pm 15.7 SSE 9 13 1014.1 - 0.0 - - - - - - -
19/02:30pm 16.0 S 9 12 1014.6 - 0.0 - - - - - - -
19/02:00pm 16.5 SSE 7 9 1015.2 - 0.0 - - - - - - -
19/01:30pm 16.6 S 7 9 1015.5 - 0.0 - - - - - - -
19/01:00pm 15.7 SW 5 9 1016.0 - 0.0 - - - - - - -
19/12:30pm 15.6 W 6 11 1016.5 - 0.0 - - - - - - -
19/12:00pm 16.1 SSW 8 12 1016.8 - 0.0 - - - - - - -
19/11:30am 15.1 SSW 8 11 1017.0 - 0.0 - - - - - - -
19/11:00am 15.6 SSW 8 11 1017.3 - 0.0 - - - - - - -
19/10:30am 14.1 WSW 9 13 1017.5 - 0.0 - - - - - - -
19/10:00am 13.6 WSW 9 13 1017.7 - 0.0 - - - - - - -
19/09:30am 12.9 SW 9 11 1017.8 - 0.0 - - - - - - -
19/09:00am 12.3 WSW 11 14 1017.9 - 0.0 - - - - - - -
19/08:30am 12.1 WSW 11 15 1017.7 - 0.0 - - - - - - -
19/08:00am 12.0 WSW 14 17 1017.5 - 0.0 - - - - - - -
19/07:30am 11.5 SW 12 17 1017.4 - 0.0 - - - - - - -
19/07:00am 11.5 WSW 14 19 1017.2 - 0.0 - - - - - - -
19/06:30am 11.0 WSW 13 18 1016.8 - 0.0 - - - - - - -
19/06:00am 11.0 WSW 13 19 1016.6 - 0.0 - - - - - - -
19/05:30am 11.1 WSW 18 23 1016.5 - 0.0 - - - - - - -
19/05:00am 11.4 W 14 19 1016.2 - 0.0 - - - - - - -
19/04:30am 11.3 W 13 18 1016.1 - 0.0 - - - - - - -
19/04:00am 11.2 W 15 20 1016.1 - 0.0 - - - - - - -
19/03:30am 11.2 W 15 20 1016.1 - 0.0 - - - - - - -
19/03:00am 11.6 WSW 16 24 1016.3 - 0.0 - - - - - - -
19/02:30am 11.6 WSW 17 22 1016.4 - 0.0 - - - - - - -
19/02:00am 11.7 WSW 14 20 1016.5 - 0.0 - - - - - - -
19/01:30am 11.9 W 17 22 1016.4 - 0.0 - - - - - - -
19/01:00am 11.9 WSW 19 24 1016.3 - 0.0 - - - - - - -
19/12:30am 12.0 WSW 20 26 1016.3 - 0.0 - - - - - - -
19/12:00am 12.1 WSW 21 26 1016.2 - 0.0 - - - - - - -
 
Date/Time
EDT
Temp
°C
Wind Pressure Rain since
9am
mm
Weather Cloud Vis
km
Sea
Height
m
Swell
Dir  Spd
kts
Gust
kts
hPa Trend Height
m
Period
s
Dir
18/11:30pm 12.0 WSW 20 26 1016.2 - 0.0 - - - - - - -
18/11:00pm 12.2 WSW 21 25 1016.3 - 0.0 - - - - - - -
18/10:30pm 12.1 WSW 21 29 1016.1 - 0.0 - - - - - - -
18/10:00pm 12.2 WSW 24 31 1016.1 - 0.0 - - - - - - -
18/09:53pm 12.3 WSW 20 31 1016.1 - 0.0 - - - - - - -
18/09:30pm 12.5 WSW 21 29 1015.9 - 0.0 - - - - - - -
18/09:00pm 12.4 WSW 19 27 1015.8 - 0.0 - - - - - - -
18/08:30pm 12.4 WSW 24 29 1015.4 - 0.0 - - - - - - -
18/08:00pm 12.5 WSW 25 33 1015.1 - 0.0 - - - - - - -
18/07:30pm 12.4 WSW 26 33 1014.6 - 0.0 - - - - - - -
18/07:02pm 12.9 WSW 27 37 1014.0 - 0.0 - - - - - - -
18/07:00pm 12.9 WSW 28 37 1014.0 - 0.0 - - - - - - -
18/06:30pm 13.3 WSW 23 33 1013.6 - 0.0 - - - - - - -
18/06:06pm 13.4 WSW 24 34 1013.4 - 0.0 - - - - - - -
18/06:00pm 14.2 WSW 26 34 1013.4 - 0.0 - - - - - - -
18/05:30pm 13.4 WSW 30 41 1012.7 - 0.0 - - - - - - -
18/05:25pm 13.5 WSW 29 41 1012.6 - 0.0 - - - - - - -
18/05:00pm 13.3 WSW 27 33 1012.4 - 0.0 - - - - - - -
18/04:30pm 14.4 WSW 27 35 1012.4 - 0.0 - - - - - - -
18/04:00pm 14.8 WSW 30 37 1011.7 - 0.0 - - - - - - -
18/03:37pm 14.1 WSW 29 39 1011.4 - 0.0 - - - - - - -
18/03:30pm 14.7 WSW 30 37 1011.5 - 0.0 - - - - - - -
18/03:00pm 13.9 WSW 31 41 1011.3 - 0.0 - - - - - - -
18/02:44pm 13.9 WSW 34 44 1011.1 - 0.0 - - - - - - -
18/02:30pm 13.8 WSW 33 41 1010.9 - 0.0 - - - - - - -
18/02:01pm 14.7 WSW 29 39 1010.4 - 0.0 - - - - - - -
18/02:00pm 14.6 WSW 30 39 1010.4 - 0.0 - - - - - - -
18/01:33pm 13.7 WSW 36 46 1009.7 - 0.0 - - - - - - -
18/01:30pm 13.8 WSW 34 43 1009.8 - 0.0 - - - - - - -
18/01:17pm 14.8 WSW 30 42 1009.5 - 0.0 - - - - - - -
18/01:00pm 15.2 WSW 28 36 1009.5 - 0.0 - - - - - - -
18/12:30pm 13.4 WSW 33 43 1009.2 - 0.0 - - - - - - -
18/12:00pm 13.7 W 34 45 1008.7 - 0.0 - - - - - - -
18/11:30am 14.3 WSW 34 45 1008.0 - 0.0 - - - - - - -
18/11:00am 13.4 WSW 33 44 1007.4 - 0.0 - - - - - - -
18/10:39am 13.3 WSW 37 47 1006.9 - 0.0 - - - - - - -
18/10:30am 13.2 WSW 38 47 1006.8 - 0.0 - - - - - - -
18/10:00am 13.2 WSW 33 45 1006.4 - 0.0 - - - - - - -
18/09:39am 12.9 WSW 34 44 1006.1 - 0.0 - - - - - - -
18/09:30am 13.1 WSW 36 44 1005.8 - 0.0 - - - - - - -
18/09:05am 12.4 WSW 39 49 1005.5 - 0.0 - - - - - - -
18/09:00am 12.0 WSW 40 49 1005.2 - 2.4 Recent precip. - - - - - -
18/08:30am 11.3 W 32 43 1004.6 - 2.4 - - - - - - -
18/08:00am 11.2 W 29 43 1004.2 - 2.0 - - - - - - -
18/07:35am 10.9 W 32 42 1003.5 - 1.2 - - - - - - -
18/07:30am 11.4 W 29 38 1003.4 - 1.2 - - - - - - -
18/07:00am 11.9 W 31 43 1002.9 - 1.0 - - - - - - -
18/06:32am 10.9 W 37 47 1002.1 - 1.0 - - - - - - -
18/06:30am 10.9 W 36 45 1002.2 - 1.0 - - - - - - -
18/06:00am 9.1 W 38 50 1001.6 - 0.8 Rain - - - - - -
18/05:49am 10.7 WSW 36 52 1001.7 - 0.6 - - - - - - -
18/05:30am 12.5 W 31 42 1000.8 - 0.6 - - - - - - -
18/05:01am 12.1 W 37 47 1000.0 - 0.6 - - - - - - -
18/05:00am 12.2 W 38 47 1000.0 - 0.6 - - - - - - -
18/04:46am 12.0 W 33 54 999.7 - 0.6 - - - - - - -
18/04:41am 12.9 W 29 41 1000.1 - 0.6 - - - - - - -
18/04:30am 13.1 W 31 40 999.9 - 0.6 - - - - - - -
18/04:15am 12.6 W 29 40 999.9 - 0.6 - - - - - - -
18/04:00am 12.5 W 32 38 999.8 - 0.6 - - - - - - -
18/03:49am 11.9 W 28 39 999.8 - 0.6 - - - - - - -
18/03:30am 13.7 W 27 35 999.7 - 0.4 - - - - - - -
18/03:27am 13.5 WNW 25 35 999.6 - 0.4 - - - - - - -
18/03:00am 13.4 WNW 22 29 999.7 - 0.4 - - - - - - -
18/02:30am 13.3 WNW 19 29 1000.2 - 0.4 - - - - - - -
18/02:12am 13.3 WNW 18 28 1000.4 - 0.4 - - - - - - -
18/02:00am 13.5 WNW 19 27 1000.7 - 0.4 - - - - - - -
18/01:30am 13.5 WNW 19 27 1001.4 - 0.4 - - - - - - -
18/01:13am 13.7 WNW 17 27 1001.5 - 0.4 - - - - - - -

Other Formats:

Comma delimited format used in spreadsheet applications
http://www.bom.gov.au/fwo/IDT60701/IDT60701.95967.axf

JavaScript Object Notation format (JSON) in row-major order
http://www.bom.gov.au/fwo/IDT60701/IDT60701.95967.json